Time;durP1;ratioP1;P1;durP2;ratioP2;P2;SDS_P1;SDS_P2;PMS_P1;PMS_P2;Temp;Humidity;BMP_temperature;BMP_pressure;BME280_temperature;BME280_humidity;BME280_pressure;Samples;Min_cycle;Max_cycle;Signal;HPM_P1;HPM_P2
2022/05/17 00:01:46;;;;;;;3.13;2.83;;;;;;;15.32;100.00;100703.75;5026233;28;20257;-74
2022/05/17 00:04:11;;;;;;;4.00;3.00;;;;;;;15.31;100.00;100700.25;5028406;28;20195;-74
2022/05/17 00:06:37;;;;;;;3.30;3.00;;;;;;;15.29;100.00;100704.66;5022932;28;20223;-75
2022/05/17 00:09:02;;;;;;;3.37;3.07;;;;;;;15.26;100.00;100696.03;5032611;28;20697;-75
2022/05/17 00:11:28;;;;;;;4.90;3.23;;;;;;;15.24;100.00;100707.38;5026539;28;20225;-77
2022/05/17 00:13:54;;;;;;;3.73;3.43;;;;;;;15.21;100.00;100707.44;5020506;28;20562;-76
2022/05/17 00:16:20;;;;;;;3.50;3.20;;;;;;;15.17;100.00;100697.09;5025789;28;20218;-75
2022/05/17 00:18:46;;;;;;;3.43;3.13;;;;;;;15.15;100.00;100701.50;5024189;28;20246;-75
2022/05/17 00:21:11;;;;;;;3.70;3.40;;;;;;;15.11;100.00;100695.50;5028463;28;20241;-75
2022/05/17 00:23:37;;;;;;;3.70;3.37;;;;;;;15.08;100.00;100701.63;5019491;28;22160;-75
2022/05/17 00:26:04;;;;;;;3.57;3.27;;;;;;;15.04;100.00;100699.97;5020270;28;20295;-73
2022/05/17 00:28:30;;;;;;;3.80;3.40;;;;;;;14.99;100.00;100704.41;5024349;28;20225;-75
2022/05/17 00:30:56;;;;;;;4.00;3.33;;;;;;;14.94;100.00;100701.06;5028134;28;20689;-74
2022/05/17 00:33:21;;;;;;;3.57;3.27;;;;;;;14.90;100.00;100707.22;5030457;28;20624;-74
2022/05/17 00:35:48;;;;;;;3.47;3.17;;;;;;;14.86;100.00;100700.34;5027945;28;20211;-73
2022/05/17 00:38:14;;;;;;;3.50;3.20;;;;;;;14.80;100.00;100700.50;5026548;28;20205;-74
2022/05/17 00:40:40;;;;;;;3.17;2.97;;;;;;;14.74;100.00;100707.53;5021365;28;20181;-75
2022/05/17 00:43:13;;;;;;;3.83;3.47;;;;;;;14.70;100.00;100708.47;5032975;28;20252;-75
2022/05/17 00:45:45;;;;;;;3.30;3.00;;;;;;;14.63;100.00;100706.84;5031647;28;20322;-75
2022/05/17 00:48:11;;;;;;;3.70;3.40;;;;;;;14.57;100.00;100710.44;5030199;28;20190;-75
2022/05/17 00:50:43;;;;;;;3.60;3.10;;;;;;;14.53;100.00;100713.09;5027438;28;20198;-76
2022/05/17 00:53:18;;;;;;;3.60;3.30;;;;;;;14.47;100.00;100709.75;5025048;28;20185;-75
2022/05/17 00:55:56;;;;;;;3.27;2.97;;;;;;;14.44;100.00;100712.41;5029544;28;20210;-74
2022/05/17 00:58:32;;;;;;;4.70;3.00;;;;;;;14.38;100.00;100711.66;5021724;28;20241;-75
2022/05/17 01:01:02;;;;;;;3.27;2.97;;;;;;;14.35;100.00;100702.16;5025147;28;20508;-74
2022/05/17 01:03:42;;;;;;;3.30;3.00;;;;;;;14.32;100.00;100703.03;5027966;28;20254;-75
2022/05/17 01:06:09;;;;;;;3.30;3.10;;;;;;;14.29;100.00;100703.09;5023490;28;20212;-76
2022/05/17 01:08:34;;;;;;;3.33;3.03;;;;;;;14.26;100.00;100697.97;5023123;28;20277;-74
2022/05/17 01:11:00;;;;;;;3.43;3.23;;;;;;;14.21;100.00;100705.00;5028583;28;20371;-75
2022/05/17 01:16:10;;;;;;;3.57;3.27;;;;;;;14.13;100.00;100697.31;5026278;28;20714;-76
2022/05/17 01:18:39;;;;;;;3.67;3.33;;;;;;;14.11;100.00;100700.84;5026913;28;20182;-75
2022/05/17 01:21:05;;;;;;;3.37;3.07;;;;;;;14.08;100.00;100701.72;5027240;28;20592;-74
2022/05/17 01:23:30;;;;;;;3.70;3.37;;;;;;;14.06;100.00;100706.13;5025220;28;20186;-75
2022/05/17 01:25:57;;;;;;;3.80;3.43;;;;;;;14.05;100.00;100709.63;5022829;28;20220;-76
2022/05/17 01:28:27;;;;;;;3.90;3.50;;;;;;;14.03;100.00;100707.00;5027352;28;20189;-74
2022/05/17 01:30:52;;;;;;;3.93;3.43;;;;;;;14.02;100.00;100713.09;5038655;28;20643;-75
2022/05/17 01:33:19;;;;;;;3.73;3.23;;;;;;;14.01;100.00;100700.97;5025475;28;20265;-75
2022/05/17 01:35:45;;;;;;;3.70;3.40;;;;;;;14.01;100.00;100700.13;5034201;28;20207;-75
2022/05/17 01:38:12;;;;;;;5.13;3.60;;;;;;;14.01;100.00;100703.56;5026297;28;20231;-75
2022/05/17 01:40:38;;;;;;;3.73;3.43;;;;;;;14.02;100.00;100694.03;5037265;28;21631;-75
2022/05/17 01:43:04;;;;;;;4.03;3.67;;;;;;;14.02;100.00;100697.50;5025029;28;20236;-75
2022/05/17 01:45:30;;;;;;;3.57;3.27;;;;;;;13.99;100.00;100696.69;5022454;28;20277;-76
2022/05/17 01:47:55;;;;;;;3.77;3.47;;;;;;;13.96;100.00;100691.53;5027968;28;20241;-75
2022/05/17 01:50:21;;;;;;;4.37;3.60;;;;;;;13.95;100.00;100695.88;5027955;28;20654;-74
2022/05/17 01:52:47;;;;;;;3.50;3.20;;;;;;;13.90;100.00;100705.50;5017144;28;20211;-75
2022/05/17 01:55:13;;;;;;;3.60;3.30;;;;;;;13.89;100.00;100698.56;5020733;28;20214;-75
2022/05/17 01:57:39;;;;;;;3.60;3.30;;;;;;;13.90;100.00;100700.28;5022876;28;20194;-75
2022/05/17 02:00:07;;;;;;;3.60;3.30;;;;;;;13.89;100.00;100700.34;5028927;28;20188;-75
2022/05/17 02:02:33;;;;;;;4.47;4.07;;;;;;;13.87;100.00;100693.41;5025775;28;20287;-76
2022/05/17 02:04:58;;;;;;;4.33;3.80;;;;;;;13.87;100.00;100708.16;5024603;28;20587;-75
2022/05/17 02:07:24;;;;;;;4.80;3.80;;;;;;;13.87;100.00;100713.34;5023156;28;20212;-75
2022/05/17 02:09:49;;;;;;;4.10;3.70;;;;;;;13.84;100.00;100705.63;5028451;28;20339;-76
2022/05/17 02:12:15;;;;;;;4.00;3.70;;;;;;;13.81;100.00;100697.84;5030447;28;20207;-75
2022/05/17 02:14:40;;;;;;;4.43;3.63;;;;;;;13.81;100.00;100700.47;5027092;28;20190;-74
2022/05/17 02:17:08;;;;;;;4.53;3.97;;;;;;;13.82;100.00;100699.56;5021436;28;20314;-73
2022/05/17 02:19:33;;;;;;;4.20;3.90;;;;;;;13.82;100.00;100699.56;5029668;28;20201;-74
2022/05/17 02:21:58;;;;;;;4.33;3.80;;;;;;;13.81;100.00;100700.47;5021266;28;20176;-75
2022/05/17 02:24:27;;;;;;;3.80;3.50;;;;;;;13.80;100.00;100702.19;5023457;28;20189;-75
2022/05/17 02:26:52;;;;;;;4.17;3.77;;;;;;;13.79;100.00;100704.81;5023724;28;20742;-75
2022/05/17 02:29:18;;;;;;;5.33;3.60;;;;;;;13.78;100.00;100708.31;5024738;28;20294;-75
2022/05/17 02:31:43;;;;;;;4.00;3.70;;;;;;;13.75;100.00;100706.63;5026942;28;20685;-74
2022/05/17 02:34:09;;;;;;;3.83;3.53;;;;;;;13.71;100.00;100705.78;5028184;28;20212;-74
2022/05/17 02:36:34;;;;;;;4.10;3.47;;;;;;;13.70;100.00;100706.66;5029934;28;20600;-74
2022/05/17 02:38:59;;;;;;;3.73;3.43;;;;;;;13.67;100.00;100711.94;5027372;28;20574;-74
2022/05/17 02:41:24;;;;;;;4.50;3.73;;;;;;;13.63;100.00;100705.06;5033160;28;20207;-74
2022/05/17 02:43:50;;;;;;;3.80;3.50;;;;;;;13.62;100.00;100713.72;5034127;28;20971;-75
2022/05/17 02:46:16;;;;;;;3.60;3.30;;;;;;;13.59;100.00;100718.97;5034341;28;20838;-75
2022/05/17 02:48:42;;;;;;;4.33;3.33;;;;;;;13.55;100.00;100725.09;5030368;28;20205;-75
2022/05/17 02:51:15;;;;;;;3.80;3.50;;;;;;;13.53;100.00;100717.31;5031908;28;20570;-75
2022/05/17 02:53:41;;;;;;;4.40;3.50;;;;;;;13.52;100.00;100720.81;5026532;28;20195;-75
2022/05/17 02:56:07;;;;;;;4.00;3.37;;;;;;;13.50;100.00;100724.31;5027057;28;20304;-75
2022/05/17 02:58:33;;;;;;;3.53;3.23;;;;;;;13.49;100.00;100722.59;5023633;28;20198;-75
2022/05/17 03:00:59;;;;;;;4.20;3.87;;;;;;;13.46;100.00;100723.47;5029006;28;20184;-75
2022/05/17 03:03:24;;;;;;;3.90;3.60;;;;;;;13.46;100.00;100730.44;5033141;28;20635;-75
2022/05/17 03:05:50;;;;;;;4.17;3.87;;;;;;;13.46;100.00;100730.44;5030619;28;20222;-74
2022/05/17 03:08:15;;;;;;;4.07;3.67;;;;;;;13.45;100.00;100731.31;5026159;28;20216;-75
2022/05/17 03:10:40;;;;;;;4.77;4.10;;;;;;;13.44;100.00;100733.06;5028102;28;20181;-75
2022/05/17 03:13:09;;;;;;;4.70;4.17;;;;;;;13.46;100.00;100733.88;5027523;28;20195;-76
2022/05/17 03:15:35;;;;;;;6.47;4.60;;;;;;;13.51;100.00;100726.88;5020918;28;20227;-75
2022/05/17 03:18:00;;;;;;;4.97;4.30;;;;;;;13.54;100.00;100731.16;5024786;28;20236;-75
2022/05/17 03:20:25;;;;;;;5.37;4.13;;;;;;;13.56;100.00;100737.22;5032897;28;20192;-75
2022/05/17 03:22:51;;;;;;;4.80;4.40;;;;;;;13.61;100.00;100734.56;5028256;28;20182;-75
2022/05/17 03:25:16;;;;;;;4.63;4.23;;;;;;;13.69;100.00;100737.91;5027680;28;20198;-75
2022/05/17 03:27:41;;;;;;;4.40;4.00;;;;;;;13.72;100.00;100743.06;5028465;28;20179;-75
2022/05/17 03:30:09;;;;;;;4.00;3.70;;;;;;;13.74;100.00;100743.03;5028631;28;20235;-75
2022/05/17 03:32:35;;;;;;;4.87;4.47;;;;;;;13.76;100.00;100752.56;5028308;28;20207;-74
2022/05/17 03:35:00;;;;;;;4.63;4.03;;;;;;;13.79;100.00;100738.63;5026916;28;20226;-75
2022/05/17 03:37:26;;;;;;;3.70;3.40;;;;;;;13.81;100.00;100744.69;5029795;28;20207;-75
2022/05/17 03:39:52;;;;;;;4.30;3.90;;;;;;;13.84;100.00;100744.63;5025697;28;20197;-74
2022/05/17 03:42:18;;;;;;;4.43;4.03;;;;;;;13.87;100.00;100754.97;5022937;28;20183;-76
2022/05/17 03:44:43;;;;;;;4.17;3.63;;;;;;;13.85;100.00;100748.94;5021843;28;20239;-74
2022/05/17 03:47:09;;;;;;;4.47;4.10;;;;;;;13.86;100.00;100748.06;5027540;28;20214;-74
2022/05/17 03:49:37;;;;;;;4.63;4.20;;;;;;;13.86;100.00;100755.84;5027978;28;20193;-75
2022/05/17 03:52:03;;;;;;;4.03;3.73;;;;;;;13.82;100.00;100762.00;5024721;28;20205;-75
2022/05/17 03:54:28;;;;;;;4.07;3.77;;;;;;;13.75;100.00;100749.97;5031686;28;20274;-74
2022/05/17 03:56:54;;;;;;;4.07;3.70;;;;;;;13.71;100.00;100752.59;5027327;28;20212;-74
2022/05/17 03:59:19;;;;;;;3.73;3.40;;;;;;;13.70;100.00;100756.09;5029849;28;20222;-74
2022/05/17 04:01:44;;;;;;;4.87;4.47;;;;;;;13.67;100.00;100758.75;5023718;28;20243;-74
2022/05/17 04:04:11;;;;;;;3.77;3.53;;;;;;;13.65;100.00;100760.50;5027450;28;20181;-75
2022/05/17 04:06:37;;;;;;;4.10;3.70;;;;;;;13.68;100.00;100759.59;5025083;28;20215;-75
2022/05/17 04:09:03;;;;;;;4.17;3.80;;;;;;;13.72;100.00;100756.94;5021598;28;20177;-74
2022/05/17 04:11:28;;;;;;;4.57;4.17;;;;;;;13.99;100.00;100764.34;5030731;28;20239;-75
2022/05/17 04:13:54;;;;;;;4.07;3.67;;;;;;;14.47;100.00;100754.00;5060650;28;20269;-75
2022/05/17 04:16:19;;;;;;;4.67;4.27;;;;;;;14.99;100.00;100758.31;5030019;28;20273;-75
2022/05/17 04:18:46;;;;;;;5.67;4.00;;;;;;;15.30;100.00;100758.53;5027516;28;20983;-75
2022/05/17 04:21:12;;;;;;;4.20;3.80;;;;;;;15.38;100.00;100756.63;5030236;28;20188;-75
2022/05/17 04:23:38;;;;;;;4.40;4.00;;;;;;;15.33;100.00;100760.22;5029172;28;20263;-74
2022/05/17 04:26:04;;;;;;;4.43;4.03;;;;;;;15.24;100.00;100762.13;5029687;28;20695;-75
2022/05/17 04:28:30;;;;;;;4.30;3.63;;;;;;;15.34;100.00;100762.78;5028872;28;20183;-75
2022/05/17 04:30:56;;;;;;;5.33;3.90;;;;;;;15.45;100.00;100761.69;5031224;28;20189;-74
2022/05/17 04:33:22;;;;;;;4.40;4.00;;;;;;;15.53;100.00;100763.25;5024658;28;20193;-75
2022/05/17 04:35:47;;;;;;;3.90;3.43;;;;;;;15.63;100.00;100766.50;5029044;28;20198;-76
2022/05/17 04:38:13;;;;;;;6.17;3.43;;;;;;;15.76;100.00;100763.63;5034388;28;20186;-76
2022/05/17 04:40:41;;;;;;;4.47;3.40;;;;;;;15.78;100.00;100767.06;5025603;28;20191;-75
2022/05/17 04:43:07;;;;;;;3.70;3.40;;;;;;;15.79;100.00;100774.00;5025896;28;20182;-74
2022/05/17 04:45:33;;;;;;;4.47;4.07;;;;;;;15.77;100.00;100773.16;5029926;28;20208;-74
2022/05/17 04:47:58;;;;;;;3.83;3.50;;;;;;;15.74;100.00;100770.63;5029169;28;20560;-74
2022/05/17 04:50:24;;;;;;;5.17;3.73;;;;;;;15.73;100.00;100779.38;5028891;28;20254;-75
2022/05/17 04:52:49;;;;;;;4.43;4.03;;;;;;;15.75;100.00;100775.81;5029524;28;20549;-76
2022/05/17 04:55:17;;;;;;;8.27;4.30;;;;;;;15.85;100.00;100779.97;5033250;28;20184;-75
2022/05/17 04:57:42;;;;;;;4.33;3.43;;;;;;;15.96;100.00;100781.44;5026093;28;20273;-75
2022/05/17 05:00:12;;;;;;;5.93;3.70;;;;;;;16.10;100.00;100782.00;5030971;28;20266;-76
2022/05/17 05:02:38;;;;;;;4.97;4.00;;;;;;;16.23;100.00;100789.53;5027886;28;20206;-76
2022/05/17 05:05:07;;;;;;;4.07;3.70;;;;;;;16.36;100.00;100788.34;5032632;28;20725;-77
2022/05/17 05:07:32;;;;;;;4.67;4.13;;;;;;;16.51;100.00;100788.84;5024822;28;20208;-77
2022/05/17 05:09:57;;;;;;;6.37;3.80;;;;;;;16.74;100.00;100790.84;5030136;28;20205;-75
2022/05/17 05:12:23;;;;;;;6.10;4.10;;;;;;;16.92;100.00;100792.09;5030149;28;20212;-75
2022/05/17 05:14:49;;;;;;;5.27;3.77;;;;;;;17.09;100.00;100798.66;5032048;28;20598;-77
2022/05/17 05:17:14;;;;;;;4.87;3.70;;;;;;;17.40;100.00;100798.63;5028987;28;20196;-76
2022/05/17 05:19:43;;;;;;;4.07;3.67;;;;;;;18.02;100.00;100802.03;5029131;28;20211;-76
2022/05/17 05:22:08;;;;;;;4.30;3.20;;;;;;;19.23;100.00;100800.56;5026346;28;20255;-76
2022/05/17 05:24:34;;;;;;;3.40;3.10;;;;;;;20.70;98.14;100793.91;5027912;28;20590;-75
2022/05/17 05:27:00;;;;;;;4.60;3.13;;;;;;;22.06;93.48;100800.91;5022892;28;20278;-76
2022/05/17 05:29:25;;;;;;;2.93;2.70;;;;;;;23.03;90.29;100801.31;5029904;28;20228;-77
2022/05/17 05:31:51;;;;;;;3.43;3.13;;;;;;;23.75;88.08;100793.91;5031241;28;20241;-77
2022/05/17 05:34:16;;;;;;;3.53;3.13;;;;;;;24.45;85.88;100804.03;5023269;28;20682;-76
2022/05/17 05:36:41;;;;;;;8.03;3.77;;;;;;;24.82;83.09;100808.94;5021940;28;20235;-76
2022/05/17 05:39:07;;;;;;;5.43;3.40;;;;;;;25.13;82.07;100814.13;5029897;28;20190;-77
2022/05/17 05:41:33;;;;;;;4.30;3.03;;;;;;;25.48;81.06;100801.38;5019073;28;20211;-75
2022/05/17 05:43:59;;;;;;;3.37;3.07;;;;;;;25.77;79.57;100811.03;5030559;28;20266;-77
2022/05/17 05:46:24;;;;;;;4.57;3.23;;;;;;;26.09;78.86;100810.72;5028302;28;20260;-77
2022/05/17 05:48:50;;;;;;;6.63;3.27;;;;;;;26.38;77.95;100810.59;5028920;28;20209;-76
2022/05/17 05:51:15;;;;;;;4.90;3.30;;;;;;;26.60;77.19;100804.69;5026117;28;20207;-76
2022/05/17 05:53:40;;;;;;;3.60;3.10;;;;;;;26.76;75.45;100807.16;5033206;28;20187;-76
2022/05/17 05:56:06;;;;;;;6.93;3.60;;;;;;;26.89;74.75;100805.38;5031458;28;20316;-76
2022/05/17 05:58:34;;;;;;;3.93;3.10;;;;;;;27.13;74.38;100798.44;5028905;28;20180;-76
2022/05/17 06:01:00;;;;;;;3.10;2.80;;;;;;;27.26;73.73;100804.56;5029346;28;20206;-76
2022/05/17 06:03:27;;;;;;;6.33;3.27;;;;;;;27.20;73.11;100807.66;5020925;28;20215;-77
2022/05/17 06:05:53;;;;;;;3.77;3.30;;;;;;;27.28;72.58;100807.13;5041387;28;20210;-77
2022/05/17 06:08:18;;;;;;;3.07;2.80;;;;;;;27.67;72.84;100802.56;5035646;28;20186;-77
2022/05/17 06:10:44;;;;;;;5.60;2.73;;;;;;;27.96;71.49;100807.56;5031717;28;20191;-77
2022/05/17 06:13:13;;;;;;;4.20;2.97;;;;;;;28.29;70.82;100809.50;5029640;28;20199;-77
2022/05/17 06:15:40;;;;;;;3.93;3.10;;;;;;;28.48;69.82;100805.44;5028873;28;20191;-76
2022/05/17 06:18:08;;;;;;;3.50;3.20;;;;;;;28.56;69.25;100808.34;5029013;28;20183;-76
2022/05/17 06:20:34;;;;;;;5.33;3.33;;;;;;;28.49;69.29;100809.81;5025310;28;20286;-76
2022/05/17 06:22:59;;;;;;;8.70;3.77;;;;;;;28.37;68.97;100806.25;5028363;28;20184;-76
2022/05/17 06:25:25;;;;;;;3.63;3.30;;;;;;;28.52;69.33;100803.41;5032558;28;20217;-76
2022/05/17 06:27:50;;;;;;;3.27;2.97;;;;;;;28.82;68.84;100804.69;5028192;28;20207;-76
2022/05/17 06:30:16;;;;;;;4.90;3.20;;;;;;;28.91;68.18;100801.28;5018722;28;20191;-76
2022/05/17 06:32:42;;;;;;;4.17;3.60;;;;;;;28.88;68.63;100804.22;5022772;28;20231;-76
2022/05/17 06:35:08;;;;;;;4.03;3.30;;;;;;;29.04;68.41;100801.16;5023755;28;20183;-76
2022/05/17 06:37:34;;;;;;;4.50;3.10;;;;;;;29.26;68.22;100800.31;5050514;28;20308;-75
2022/05/17 06:39:59;;;;;;;4.27;3.70;;;;;;;29.41;67.40;100792.94;5026858;28;20271;-75
2022/05/17 06:42:27;;;;;;;4.30;3.90;;;;;;;29.37;67.18;100794.13;5034783;28;20194;-76
2022/05/17 06:44:52;;;;;;;3.53;3.20;;;;;;;29.47;67.84;100795.06;5028560;28;20667;-76
2022/05/17 06:47:18;;;;;;;6.93;3.70;;;;;;;29.44;66.84;100797.16;5025323;28;20236;-75
2022/05/17 06:49:43;;;;;;;7.90;3.47;;;;;;;29.14;66.58;100802.13;5029414;28;20191;-76
2022/05/17 06:52:09;;;;;;;3.93;3.50;;;;;;;28.84;67.52;100800.91;5028488;28;20239;-76
2022/05/17 06:54:37;;;;;;;7.77;3.27;;;;;;;28.52;68.19;100806.88;5021276;28;20194;-76
2022/05/17 06:57:08;;;;;;;6.43;3.80;;;;;;;28.54;68.93;100796.13;5028971;28;20563;-75
2022/05/17 06:59:35;;;;;;;4.53;3.13;;;;;;;28.80;68.69;100804.81;5029071;28;20274;-76
2022/05/17 07:02:01;;;;;;;5.17;2.87;;;;;;;29.12;68.54;100801.38;5027985;28;20683;-78
2022/05/17 07:04:29;;;;;;;3.47;3.17;;;;;;;29.39;68.12;100797.53;5029555;28;20203;-76
2022/05/17 07:06:56;;;;;;;3.00;2.70;;;;;;;29.49;67.80;100800.31;5029084;28;20222;-75
2022/05/17 07:09:22;;;;;;;3.47;2.77;;;;;;;29.41;67.85;100802.72;5030196;28;20207;-76
2022/05/17 07:14:38;;;;;;;4.33;3.20;;;;;;;29.22;67.96;100801.50;5029041;28;20249;-75
2022/05/17 07:17:05;;;;;;;4.93;2.93;;;;;;;29.30;68.72;100804.41;5028775;28;20207;-77
2022/05/17 07:19:33;;;;;;;3.67;3.17;;;;;;;29.20;68.62;100804.31;5028147;28;20254;-76
2022/05/17 07:21:59;;;;;;;4.03;3.00;;;;;;;29.16;69.43;100799.34;5028729;28;20209;-76
2022/05/17 07:24:24;;;;;;;4.40;2.97;;;;;;;29.21;69.35;100802.47;5021777;28;20216;-76
2022/05/17 07:26:50;;;;;;;3.70;3.00;;;;;;;29.15;69.15;100806.47;5042076;28;20256;-77
2022/05/17 07:29:15;;;;;;;3.70;3.10;;;;;;;29.09;69.15;100801.66;5040294;28;20211;-75
2022/05/17 07:31:40;;;;;;;4.57;2.90;;;;;;;29.15;69.61;100800.31;5026421;28;20215;-77
2022/05/17 07:34:06;;;;;;;2.97;2.30;;;;;;;29.18;69.27;100787.59;5033818;28;20639;-76
2022/05/17 07:36:31;;;;;;;5.00;2.93;;;;;;;28.94;69.50;100797.53;5034455;28;20203;-76
2022/05/17 07:38:57;;;;;;;3.83;2.80;;;;;;;28.83;70.26;100791.22;5028518;28;20639;-76
2022/05/17 07:41:23;;;;;;;2.80;2.60;;;;;;;28.76;70.40;100795.34;5033686;28;20213;-76
2022/05/17 07:43:48;;;;;;;3.03;2.77;;;;;;;28.52;70.95;100787.41;5029734;28;20195;-75
2022/05/17 07:46:14;;;;;;;4.03;2.90;;;;;;;28.25;71.51;100784.09;5031468;28;20203;-76
2022/05/17 07:48:39;;;;;;;5.63;3.50;;;;;;;27.77;72.16;100781.44;5031968;28;20188;-77
2022/05/17 07:51:06;;;;;;;4.23;3.70;;;;;;;27.53;72.84;100785.81;5033540;28;20183;-76
2022/05/17 07:53:32;;;;;;;4.63;3.57;;;;;;;27.36;73.51;100788.81;5032240;28;20584;-76
2022/05/17 07:55:58;;;;;;;3.03;2.73;;;;;;;27.42;73.66;100791.03;5035921;28;20281;-75
2022/05/17 07:58:24;;;;;;;3.50;3.20;;;;;;;27.30;74.49;100795.41;5031481;28;20187;-76
2022/05/17 08:00:50;;;;;;;4.10;3.30;;;;;;;27.35;74.81;100787.97;5027878;28;20553;-75
2022/05/17 08:03:16;;;;;;;4.13;3.53;;;;;;;27.37;73.91;100790.53;5031532;28;20176;-76
2022/05/17 08:05:43;;;;;;;4.83;3.50;;;;;;;27.27;74.64;100795.66;5032670;28;20245;-76
2022/05/17 08:08:08;;;;;;;3.50;3.20;;;;;;;27.37;74.53;100791.38;5030650;28;20191;-76
2022/05/17 08:10:34;;;;;;;3.83;3.47;;;;;;;27.23;74.47;100792.34;5031760;28;20195;-75
2022/05/17 08:12:59;;;;;;;5.43;3.70;;;;;;;27.35;74.60;100787.13;5031503;28;20207;-76
2022/05/17 08:15:27;;;;;;;4.77;3.80;;;;;;;27.18;74.50;100788.31;5034845;28;20214;-78
2022/05/17 08:17:53;;;;;;;4.50;3.40;;;;;;;27.38;74.67;100784.22;5030361;28;20192;-75
2022/05/17 08:20:18;;;;;;;5.13;3.60;;;;;;;27.60;73.75;100785.38;5041476;28;20200;-76
2022/05/17 08:22:45;;;;;;;3.90;3.50;;;;;;;27.46;73.57;100781.91;5032091;28;20643;-76
2022/05/17 08:27:58;;;;;;;4.00;3.57;;;;;;;27.60;73.70;100780.03;5033326;28;20226;-77
2022/05/17 08:30:26;;;;;;;5.17;4.03;;;;;;;27.71;73.26;100787.25;5032067;28;20686;-75
2022/05/17 08:36:01;;;;;;;6.60;4.23;;;;;;;27.45;74.29;100789.97;5026099;28;20226;-75
2022/05/17 08:38:32;;;;;;;5.27;4.30;;;;;;;27.17;74.22;100786.63;5030955;28;20186;-76
2022/05/17 08:41:10;;;;;;;4.03;3.60;;;;;;;26.83;75.52;100789.03;5031877;28;20187;-76
2022/05/17 08:43:54;;;;;;;4.57;3.90;;;;;;;27.10;74.72;100785.38;5031746;28;20176;-75
2022/05/17 08:46:25;;;;;;;11.33;4.13;;;;;;;27.07;73.87;100786.44;5018854;28;20218;-75
2022/05/17 08:48:53;;;;;;;4.67;4.00;;;;;;;27.04;73.73;100779.53;5029027;28;20179;-76
2022/05/17 08:51:33;;;;;;;5.60;4.27;;;;;;;26.99;73.45;100784.34;5023288;28;20273;-76
2022/05/17 08:53:59;;;;;;;4.27;3.87;;;;;;;26.87;73.53;100780.72;5031078;28;20187;-76
2022/05/17 08:56:28;;;;;;;6.53;4.60;;;;;;;26.81;73.05;100781.16;5031453;28;20741;-76
2022/05/17 08:58:55;;;;;;;4.20;3.80;;;;;;;26.52;72.71;100783.97;5025681;28;20245;-75
2022/05/17 09:01:25;;;;;;;8.13;4.40;;;;;;;26.50;71.99;100788.53;5022945;28;20180;-74
2022/05/17 09:04:09;;;;;;;6.43;3.93;;;;;;;26.40;72.01;100790.97;5031819;28;20182;-77
2022/05/17 09:06:52;;;;;;;4.73;3.67;;;;;;;26.26;73.05;100793.69;5029064;28;20210;-76
2022/05/17 09:09:46;;;;;;;5.07;4.13;;;;;;;26.47;72.71;100786.13;5017597;28;20295;-76
2022/05/17 09:12:44;;;;;;;4.50;3.77;;;;;;;26.09;72.42;100789.50;5025060;28;20257;-75
2022/05/17 09:15:13;;;;;;;5.73;4.00;;;;;;;26.27;72.44;100798.94;5024676;28;20175;-76
2022/05/17 09:17:38;;;;;;;3.93;3.53;;;;;;;26.29;71.73;100793.50;5032233;28;20187;-76
2022/05/17 09:20:05;;;;;;;5.13;3.60;;;;;;;26.26;71.22;100789.25;5031529;28;20188;-76
2022/05/17 09:22:30;;;;;;;3.97;3.67;;;;;;;26.28;69.60;100787.38;5030826;28;20172;-76
2022/05/17 09:25:01;;;;;;;3.73;3.43;;;;;;;26.12;69.38;100784.03;5021417;28;20964;-76
2022/05/17 09:27:32;;;;;;;4.83;3.40;;;;;;;26.17;69.16;100782.78;5032936;28;20226;-77
2022/05/17 09:30:21;;;;;;;3.30;3.00;;;;;;;26.25;68.72;100784.91;5029503;28;20176;-76
2022/05/17 09:32:47;;;;;;;5.17;3.13;;;;;;;26.22;68.63;100784.28;5027000;28;20217;-76
2022/05/17 09:35:17;;;;;;;4.10;3.23;;;;;;;25.96;68.33;100776.19;5028266;28;20204;-76
2022/05/17 09:37:45;;;;;;;5.83;3.47;;;;;;;26.09;68.10;100771.78;5028079;28;20223;-76
2022/05/17 09:40:19;;;;;;;5.33;3.00;;;;;;;26.24;68.58;100769.94;5030048;28;20188;-75
2022/05/17 09:42:57;;;;;;;3.47;3.00;;;;;;;26.29;67.80;100769.63;5028797;28;20183;-77
2022/05/17 09:45:36;;;;;;;3.67;3.37;;;;;;;26.29;67.95;100762.53;5019535;28;20200;-76
2022/05/17 09:48:05;;;;;;;4.83;3.47;;;;;;;26.44;67.84;100757.13;5029058;28;20187;-75
2022/05/17 09:53:50;;;;;;;3.57;3.23;;;;;;;26.35;68.64;100763.06;5019498;28;20620;-75
2022/05/17 09:56:23;;;;;;;3.50;3.20;;;;;;;26.54;65.93;100752.88;5029660;28;20208;-76
2022/05/17 09:58:49;;;;;;;15.23;4.33;;;;;;;26.33;65.19;100760.50;5028518;28;20195;-75
2022/05/17 10:01:25;;;;;;;5.70;2.67;;;;;;;26.03;65.63;100757.13;5028077;28;20171;-75
2022/05/17 10:04:19;;;;;;;5.20;2.90;;;;;;;26.38;65.65;100744.28;5027009;28;20195;-76
2022/05/17 10:06:53;;;;;;;5.13;3.10;;;;;;;26.43;64.81;100750.13;5026054;28;20219;-76
2022/05/17 10:09:30;;;;;;;2.63;2.43;;;;;;;26.46;64.65;100739.31;5028879;28;20190;-76
2022/05/17 10:12:11;;;;;;;2.67;2.40;;;;;;;26.50;64.71;100734.63;5030536;28;20207;-76
2022/05/17 10:14:43;;;;;;;2.90;2.70;;;;;;;26.59;64.27;100732.19;5029805;28;20521;-76
2022/05/17 10:17:19;;;;;;;2.90;2.60;;;;;;;26.55;62.87;100743.97;5024929;28;20694;-75
2022/05/17 10:19:54;;;;;;;3.27;2.60;;;;;;;26.38;63.28;100731.88;5019428;28;20186;-75
2022/05/17 10:22:44;;;;;;;4.17;2.60;;;;;;;25.99;63.25;100745.06;5028457;28;20180;-76
2022/05/17 10:25:33;;;;;;;5.23;2.70;;;;;;;25.80;63.10;100740.09;5021241;28;20214;-75
2022/05/17 10:28:15;;;;;;;2.53;2.33;;;;;;;26.13;61.75;100724.75;5061398;28;20253;-77
2022/05/17 10:30:58;;;;;;;4.33;2.87;;;;;;;26.27;61.51;100719.34;5029756;28;20187;-76
2022/05/17 10:33:50;;;;;;;3.23;2.40;;;;;;;26.47;60.63;100717.97;5058998;28;20528;-77
2022/05/17 10:36:30;;;;;;;3.10;2.43;;;;;;;26.44;59.89;100717.34;5027393;28;20332;-75
2022/05/17 10:39:17;;;;;;;2.90;2.00;;;;;;;26.44;60.82;100712.03;5029392;28;20191;-75
2022/05/17 10:41:43;;;;;;;2.70;2.40;;;;;;;26.54;61.52;100709.59;5027138;28;20180;-75
2022/05/17 10:44:14;;;;;;;2.60;2.40;;;;;;;26.54;61.80;100715.72;5060998;28;20191;-75
2022/05/17 10:46:47;;;;;;;4.20;2.73;;;;;;;26.27;62.38;100713.16;5031192;28;20207;-77
2022/05/17 10:49:50;;;;;;;4.00;2.67;;;;;;;26.51;62.82;100715.09;5028004;28;20183;-74
2022/05/17 10:52:42;;;;;;;3.37;2.33;;;;;;;26.63;62.97;100701.78;5027462;28;20256;-75
2022/05/17 10:55:14;;;;;;;2.83;2.63;;;;;;;26.82;63.02;100702.34;5029111;28;20318;-76
2022/05/17 10:57:58;;;;;;;4.17;2.47;;;;;;;26.93;63.16;100689.97;5026408;28;20183;-76
2022/05/17 11:00:32;;;;;;;3.57;2.87;;;;;;;27.00;62.10;100694.88;5025387;28;20227;-76
2022/05/17 11:03:07;;;;;;;5.63;3.00;;;;;;;27.01;62.35;100700.06;5033876;28;20640;-75
2022/05/17 11:05:38;;;;;;;3.83;2.93;;;;;;;26.82;62.68;100692.56;5032488;28;20571;-75
2022/05/17 11:08:22;;;;;;;2.97;2.37;;;;;;;26.95;62.67;100689.03;5031048;28;20195;-75
2022/05/17 11:10:53;;;;;;;4.20;2.80;;;;;;;27.13;61.31;100686.88;5033518;28;20183;-76
2022/05/17 11:13:31;;;;;;;3.60;2.43;;;;;;;26.85;61.13;100686.22;5031504;28;20246;-75
2022/05/17 11:16:21;;;;;;;3.00;2.70;;;;;;;26.87;62.27;100677.16;5032397;28;20207;-76
2022/05/17 11:19:05;;;;;;;3.03;2.40;;;;;;;26.87;62.52;100671.00;5030796;28;20184;-75
2022/05/17 11:21:35;;;;;;;4.87;2.70;;;;;;;26.66;63.20;100671.56;5029523;28;20179;-77
2022/05/17 11:24:09;;;;;;;3.67;2.97;;;;;;;26.88;63.27;100676.22;5028834;28;20202;-76
2022/05/17 11:26:35;;;;;;;4.63;2.70;;;;;;;26.81;63.59;100671.44;5026239;28;20698;-76
2022/05/17 11:29:27;;;;;;;3.63;2.90;;;;;;;26.83;63.94;100672.19;5029475;28;20183;-76
2022/05/17 11:31:58;;;;;;;2.63;2.40;;;;;;;26.71;64.33;100671.22;5032538;28;20702;-76
2022/05/17 11:34:32;;;;;;;4.03;2.80;;;;;;;26.70;64.64;100677.50;5031531;28;20195;-76
2022/05/17 11:37:01;;;;;;;4.03;2.80;;;;;;;26.60;63.24;100671.97;5031146;28;20217;-77
2022/05/17 11:39:34;;;;;;;3.10;2.80;;;;;;;26.56;63.13;100663.38;5032497;28;20271;-76
2022/05/17 11:42:06;;;;;;;3.00;2.57;;;;;;;26.65;62.54;100666.34;5017788;28;20275;-76
2022/05/17 11:44:42;;;;;;;5.60;2.83;;;;;;;26.52;65.25;100669.03;5031787;28;20240;-76